Time;durP1;ratioP1;P1;durP2;ratioP2;P2;SDS_P1;SDS_P2;PMS_P1;PMS_P2;Temp;Humidity;BMP_temperature;BMP_pressure;BME280_temperature;BME280_humidity;BME280_pressure;Samples;Min_cycle;Max_cycle;Signal;HPM_P1;HPM_P2
2021/07/13 00:02:24;;;;;;;5.35;2.45;;;;;;;26.02;49.19;99791.69;5002473;28;20497;-84
2021/07/13 00:05:30;;;;;;;5.65;2.45;;;;;;;25.93;50.12;99795.91;5002726;28;20053;-85
2021/07/13 00:08:34;;;;;;;7.78;2.95;;;;;;;25.77;50.41;99792.91;5014909;28;20044;-83
2021/07/13 00:11:38;;;;;;;11.43;3.20;;;;;;;25.67;50.43;99794.63;5014854;28;20045;-82
2021/07/13 00:14:43;;;;;;;7.10;3.20;;;;;;;25.58;51.12;99801.56;5014394;28;20373;-83
2021/07/13 00:17:49;;;;;;;6.00;2.92;;;;;;;25.58;51.43;99793.31;5014402;28;20374;-86
2021/07/13 00:20:55;;;;;;;9.50;2.70;;;;;;;25.59;52.09;99792.25;5013922;28;20384;-86
2021/07/13 00:24:00;;;;;;;10.35;2.88;;;;;;;25.60;52.17;99788.44;5014034;28;20049;-85
2021/07/13 00:27:04;;;;;;;6.20;2.80;;;;;;;25.54;52.37;99793.00;5013476;28;20053;-82
2021/07/13 00:30:12;;;;;;;8.45;3.13;;;;;;;25.46;52.93;99798.03;5014255;28;20053;-85
2021/07/13 00:33:16;;;;;;;9.07;2.80;;;;;;;25.41;53.40;99784.16;5014057;28;20049;-83
2021/07/13 00:36:20;;;;;;;6.03;2.67;;;;;;;25.36;53.29;99770.31;5014204;28;20065;-84
2021/07/13 00:39:24;;;;;;;7.88;2.88;;;;;;;25.28;53.87;99774.31;5013857;28;20093;-83
2021/07/13 00:42:29;;;;;;;9.48;2.80;;;;;;;25.32;53.92;99777.38;5024695;28;20485;-85
2021/07/13 00:45:34;;;;;;;8.55;2.85;;;;;;;25.31;54.35;99768.31;5014004;28;20052;-82
2021/07/13 00:48:38;;;;;;;6.78;2.70;;;;;;;25.12;55.85;99775.06;5014507;28;20061;-82
2021/07/13 00:51:44;;;;;;;7.97;2.90;;;;;;;25.14;55.10;99773.75;5016074;28;20057;-85
2021/07/13 00:54:49;;;;;;;6.93;3.42;;;;;;;25.01;55.26;99768.50;5017671;28;20385;-82
2021/07/13 00:57:54;;;;;;;8.25;2.72;;;;;;;24.91;55.29;99754.56;5017600;28;20053;-81
2021/07/13 01:00:58;;;;;;;8.60;3.20;;;;;;;24.93;54.90;99759.81;5017700;28;20052;-84
2021/07/13 01:04:05;;;;;;;7.32;2.97;;;;;;;24.95;54.90;99771.41;5020613;28;20060;-81
2021/07/13 01:07:50;;;;;;;5.80;3.25;;;;;;;25.01;54.80;99779.50;5032804;28;20056;-84
2021/07/13 01:11:08;;;;;;;5.53;2.90;;;;;;;25.03;55.03;99771.03;4983014;28;20072;-82
2021/07/13 01:14:32;;;;;;;6.25;2.83;;;;;;;25.06;55.84;99754.06;5036905;28;20072;-79
2021/07/13 01:17:48;;;;;;;10.00;2.83;;;;;;;25.12;55.75;99770.41;5024586;28;20119;-82
2021/07/13 01:21:11;;;;;;;7.03;2.40;;;;;;;25.20;55.09;99761.78;5025163;28;20052;-82
2021/07/13 01:24:37;;;;;;;8.45;3.30;;;;;;;25.15;54.15;99766.34;5036291;28;20056;-80
2021/07/13 01:27:48;;;;;;;8.45;2.88;;;;;;;24.98;52.86;99758.03;5036809;28;20124;-82
2021/07/13 01:30:57;;;;;;;10.02;3.00;;;;;;;24.79;53.05;99763.91;5036746;28;20056;-81
2021/07/13 01:34:07;;;;;;;5.13;2.70;;;;;;;24.82;53.03;99758.75;5036461;28;20060;-79
2021/07/13 01:37:13;;;;;;;9.15;3.20;;;;;;;24.79;52.55;99761.19;5037124;28;20055;-79
2021/07/13 01:40:18;;;;;;;6.88;2.53;;;;;;;24.86;52.32;99773.66;5036524;28;20049;-81
2021/07/13 01:43:23;;;;;;;6.72;2.80;;;;;;;24.94;52.55;99784.28;5031215;28;20057;-81
2021/07/13 01:46:28;;;;;;;5.97;2.80;;;;;;;25.01;52.45;99770.44;5007586;28;20045;-82
2021/07/13 01:49:38;;;;;;;4.60;2.30;;;;;;;24.95;52.23;99769.50;5034662;28;20049;-79
2021/07/13 01:52:44;;;;;;;7.43;2.90;;;;;;;25.01;52.53;99765.75;5028125;28;20064;-81
2021/07/13 01:55:48;;;;;;;4.68;2.50;;;;;;;25.04;52.41;99768.03;5016717;28;20056;-82
2021/07/13 01:58:53;;;;;;;5.47;2.45;;;;;;;25.02;52.60;99759.22;5004871;28;20073;-80
2021/07/13 02:01:59;;;;;;;6.50;2.30;;;;;;;24.98;52.72;99758.03;5016374;28;20057;-81
2021/07/13 02:05:05;;;;;;;6.35;2.55;;;;;;;25.01;52.86;99763.00;5004617;28;20057;-80
2021/07/13 02:08:10;;;;;;;6.93;2.03;;;;;;;25.00;52.65;99755.88;5004458;28;20061;-79
2021/07/13 02:11:15;;;;;;;8.23;2.80;;;;;;;25.00;53.02;99755.88;5018005;28;20057;-82
2021/07/13 02:14:19;;;;;;;11.75;2.50;;;;;;;24.91;53.51;99740.84;5016143;28;20049;-83
2021/07/13 02:17:29;;;;;;;6.22;2.58;;;;;;;24.93;53.23;99744.19;5016158;28;20052;-82
2021/07/13 02:20:34;;;;;;;10.68;2.85;;;;;;;24.84;53.41;99739.28;5015681;28;20056;-82
2021/07/13 02:23:39;;;;;;;6.80;2.63;;;;;;;24.83;53.92;99718.41;5015879;28;20135;-84
2021/07/13 02:26:49;;;;;;;9.98;3.08;;;;;;;24.80;54.10;99713.41;5016131;28;20069;-83
2021/07/13 02:30:00;;;;;;;11.77;3.22;;;;;;;24.61;54.43;99723.69;5016003;28;20072;-82
2021/07/13 02:33:14;;;;;;;6.55;3.30;;;;;;;24.52;55.18;99730.59;5016093;28;20053;-84
2021/07/13 02:36:24;;;;;;;6.40;3.28;;;;;;;24.52;55.96;99720.47;5016338;28;20492;-85
2021/07/13 02:39:33;;;;;;;10.07;4.07;;;;;;;24.42;55.95;99694.69;5015589;28;20061;-82
2021/07/13 02:42:53;;;;;;;4.68;3.03;;;;;;;24.42;56.47;99701.03;5015430;28;20473;-85
2021/07/13 02:45:58;;;;;;;8.65;3.35;;;;;;;24.10;56.52;99707.09;5003186;28;20065;-82
2021/07/13 02:49:03;;;;;;;8.10;3.40;;;;;;;23.97;56.00;99693.63;5015907;28;20056;-81
2021/07/13 02:52:10;;;;;;;10.98;3.22;;;;;;;23.97;55.53;99699.94;5002781;28;20536;-80
2021/07/13 02:55:17;;;;;;;9.93;3.22;;;;;;;24.03;55.61;99703.63;5014954;28;20057;-79
2021/07/13 02:58:22;;;;;;;6.00;2.97;;;;;;;24.12;55.63;99702.25;5003028;28;20405;-81
2021/07/13 03:01:28;;;;;;;7.22;2.70;;;;;;;24.17;55.79;99716.09;5002872;28;20049;-77
2021/07/13 03:04:34;;;;;;;5.82;2.88;;;;;;;24.24;56.42;99703.06;5015024;28;20056;-79
2021/07/13 03:07:39;;;;;;;6.18;3.00;;;;;;;24.27;56.34;99702.59;5014749;28;20049;-81
2021/07/13 03:10:43;;;;;;;5.78;2.92;;;;;;;24.28;56.36;99702.34;5015181;28;20057;-81
2021/07/13 03:13:48;;;;;;;7.85;2.92;;;;;;;24.20;56.67;99694.47;5014205;28;20393;-85
2021/07/13 03:16:55;;;;;;;9.95;3.22;;;;;;;24.14;56.73;99689.13;5016202;28;20053;-84
2021/07/13 03:19:59;;;;;;;5.53;3.05;;;;;;;24.14;56.65;99683.63;5016790;28;20049;-81
2021/07/13 03:23:04;;;;;;;5.88;3.20;;;;;;;24.13;56.66;99687.44;5015131;28;20056;-83
2021/07/13 03:26:10;;;;;;;7.03;3.20;;;;;;;24.10;57.34;99688.75;5014609;28;20049;-85
2021/07/13 03:29:15;;;;;;;6.63;2.80;;;;;;;24.09;57.33;99681.63;5003069;28;20053;-82
2021/07/13 03:32:21;;;;;;;10.65;3.15;;;;;;;23.97;57.98;99680.75;5014444;28;20536;-85
2021/07/13 03:35:26;;;;;;;8.20;3.25;;;;;;;23.99;57.48;99667.63;5033668;28;20420;-82
2021/07/13 03:38:30;;;;;;;10.48;3.33;;;;;;;23.88;57.88;99669.28;5034765;28;20052;-84
2021/07/13 03:41:35;;;;;;;6.68;3.05;;;;;;;23.84;57.36;99659.88;5034996;28;20121;-81
2021/07/13 03:44:40;;;;;;;12.25;3.20;;;;;;;23.83;57.55;99646.38;5034180;28;20397;-85
2021/07/13 03:48:03;;;;;;;7.45;2.90;;;;;;;23.84;56.85;99661.78;5034766;28;20048;-80
2021/07/13 03:51:32;;;;;;;7.50;3.15;;;;;;;23.87;56.80;99642.94;5034252;28;20061;-81
2021/07/13 03:54:36;;;;;;;5.57;2.90;;;;;;;23.88;57.62;99649.25;5022606;28;20388;-82
2021/07/13 03:57:41;;;;;;;8.70;3.28;;;;;;;23.90;57.13;99647.94;5034581;28;20049;-84
2021/07/13 04:00:45;;;;;;;6.32;2.80;;;;;;;23.89;57.37;99648.19;5034463;28;20087;-82
2021/07/13 04:03:50;;;;;;;6.13;3.38;;;;;;;23.97;57.21;99649.75;5034494;28;20060;-82
2021/07/13 04:06:54;;;;;;;7.75;2.78;;;;;;;24.02;57.72;99649.88;5033496;28;20053;-83
2021/07/13 04:09:58;;;;;;;10.85;3.50;;;;;;;24.02;58.05;99644.38;5034674;28;20060;-82
2021/07/13 04:13:03;;;;;;;10.85;3.08;;;;;;;24.05;57.99;99635.69;5019843;28;20067;-81
2021/07/13 04:16:09;;;;;;;6.22;2.95;;;;;;;24.08;57.89;99632.47;5032552;28;20057;-80
2021/07/13 04:19:13;;;;;;;6.75;2.95;;;;;;;24.08;58.16;99624.25;5032610;28;20049;-82
2021/07/13 04:22:18;;;;;;;7.15;2.88;;;;;;;23.99;58.38;99629.25;5019501;28;20057;-80
2021/07/13 04:25:22;;;;;;;6.88;3.30;;;;;;;24.02;58.25;99630.69;5013776;28;20524;-82
2021/07/13 04:28:29;;;;;;;5.35;2.90;;;;;;;24.14;57.41;99624.16;5005769;28;20056;-83
2021/07/13 04:31:34;;;;;;;6.45;3.20;;;;;;;24.02;56.46;99630.69;5018401;28;20056;-83
2021/07/13 04:34:39;;;;;;;5.38;2.92;;;;;;;24.16;56.22;99626.63;5017945;28;20057;-85
2021/07/13 04:37:44;;;;;;;4.38;2.53;;;;;;;24.39;55.50;99618.38;5017708;28;20052;-83
2021/07/13 04:40:48;;;;;;;6.78;2.70;;;;;;;24.51;55.24;99619.19;5020052;28;20052;-84
2021/07/13 04:43:52;;;;;;;6.13;2.90;;;;;;;24.49;55.08;99611.16;5037675;28;20052;-85
2021/07/13 04:46:56;;;;;;;9.88;3.10;;;;;;;24.68;54.76;99603.63;5036973;28;20373;-82
2021/07/13 04:50:01;;;;;;;8.20;3.22;;;;;;;24.78;54.38;99606.59;5037160;28;20060;-82
2021/07/13 04:53:05;;;;;;;12.98;3.53;;;;;;;24.98;54.37;99600.66;5024932;28;20053;-84
2021/07/13 04:56:10;;;;;;;11.32;3.72;;;;;;;25.14;54.48;99599.84;5037089;28;20076;-86
2021/07/13 04:59:14;;;;;;;10.85;3.40;;;;;;;25.43;54.04;99598.69;5037322;28;20048;-84
2021/07/13 05:02:19;;;;;;;7.88;3.17;;;;;;;25.75;52.06;99599.00;5037090;28;20048;-81
2021/07/13 05:05:23;;;;;;;11.30;3.33;;;;;;;26.04;51.22;99597.78;5036921;28;20056;-85
2021/07/13 05:08:27;;;;;;;7.88;2.90;;;;;;;26.20;50.25;99604.34;5036161;28;20049;-82
2021/07/13 05:11:33;;;;;;;7.93;2.65;;;;;;;26.32;49.48;99589.38;5036658;28;20052;-82
2021/07/13 05:14:37;;;;;;;7.00;2.63;;;;;;;26.34;49.24;99589.97;5035208;28;20052;-77
2021/07/13 05:17:42;;;;;;;9.70;3.20;;;;;;;26.33;49.14;99585.56;5035452;28;20061;-85
2021/07/13 05:20:48;;;;;;;15.48;6.70;;;;;;;26.37;49.35;99575.69;5036149;28;20048;-82
2021/07/13 05:23:53;;;;;;;13.30;5.35;;;;;;;26.39;49.82;99575.47;5035234;28;20500;-82
2021/07/13 05:26:57;;;;;;;13.23;4.25;;;;;;;26.23;50.18;99590.94;5036012;28;20060;-82
2021/07/13 05:30:03;;;;;;;11.80;3.20;;;;;;;26.12;50.21;99591.84;5029068;28;20045;-82
2021/07/13 05:33:08;;;;;;;14.20;4.22;;;;;;;26.23;49.79;99579.91;5036323;28;20072;-82
2021/07/13 05:36:13;;;;;;;11.40;4.90;;;;;;;26.39;49.18;99572.72;5023198;28;20048;-85
2021/07/13 05:39:17;;;;;;;9.40;3.55;;;;;;;26.49;49.05;99587.41;5036496;28;20388;-82
2021/07/13 05:42:22;;;;;;;7.18;3.15;;;;;;;26.71;48.66;99583.81;5035539;28;20495;-82
2021/07/13 05:45:26;;;;;;;9.85;3.17;;;;;;;26.94;48.95;99602.81;5030152;28;20416;-85
2021/07/13 05:48:31;;;;;;;6.97;3.15;;;;;;;27.15;48.97;99617.66;5034280;28;20048;-80
2021/07/13 05:51:35;;;;;;;16.25;3.20;;;;;;;27.13;49.03;99615.97;5032447;28;20056;-83
2021/07/13 05:54:39;;;;;;;14.32;3.33;;;;;;;27.07;49.75;99614.28;5036171;28;20052;-79
2021/07/13 05:57:44;;;;;;;13.05;4.22;;;;;;;26.99;50.46;99616.66;5036650;28;20056;-81
2021/07/13 06:00:49;;;;;;;16.23;4.10;;;;;;;26.86;50.83;99611.56;5023904;28;20052;-78
2021/07/13 06:03:53;;;;;;;20.10;3.80;;;;;;;26.94;50.40;99620.19;5035112;28;20060;-82
2021/07/13 06:06:58;;;;;;;10.40;3.47;;;;;;;26.93;49.73;99610.28;5033761;28;20064;-85
2021/07/13 06:10:02;;;;;;;30.55;4.85;;;;;;;26.86;51.42;99586.78;5015917;28;20057;-84
2021/07/13 06:13:06;;;;;;;33.78;5.78;;;;;;;26.97;53.67;99589.38;5016455;28;20057;-76
2021/07/13 06:16:11;;;;;;;28.23;8.93;;;;;;;27.25;52.77;99571.75;5034105;28;20056;-85
2021/07/13 06:19:16;;;;;;;23.13;8.13;;;;;;;27.11;53.59;99587.00;5015538;28;20401;-80
2021/07/13 06:22:20;;;;;;;14.38;6.65;;;;;;;27.07;55.98;99589.47;5003743;28;20053;-83
2021/07/13 06:25:24;;;;;;;17.15;8.55;;;;;;;27.02;59.63;99605.13;5029210;28;20056;-85
2021/07/13 06:28:28;;;;;;;17.08;8.88;;;;;;;27.03;59.57;99606.78;5035111;28;20045;-86
2021/07/13 06:31:33;;;;;;;18.00;8.50;;;;;;;27.01;59.64;99603.47;5029507;28;20052;-83
2021/07/13 06:34:38;;;;;;;13.45;8.00;;;;;;;26.90;58.50;99604.44;5032734;28;20052;-81
2021/07/13 06:37:43;;;;;;;15.88;8.23;;;;;;;26.80;58.05;99624.44;5030575;28;20056;-81
2021/07/13 06:40:47;;;;;;;11.63;8.43;;;;;;;26.70;58.74;99609.69;5033714;28;20052;-82
2021/07/13 06:43:53;;;;;;;13.70;8.13;;;;;;;26.67;59.43;99618.44;5032245;28;20393;-82
2021/07/13 06:46:57;;;;;;;13.07;8.77;;;;;;;26.58;59.26;99608.97;5016130;28;20126;-82
2021/07/13 06:50:03;;;;;;;14.63;9.13;;;;;;;26.56;59.25;99601.00;5015533;28;20049;-81
2021/07/13 06:53:07;;;;;;;15.65;8.20;;;;;;;26.76;58.78;99600.44;5015153;28;20500;-81
2021/07/13 06:56:12;;;;;;;15.85;8.73;;;;;;;27.26;57.14;99594.63;5014018;28;20048;-81
2021/07/13 06:59:16;;;;;;;16.20;8.32;;;;;;;27.63;55.79;99596.34;5034112;28;20409;-80
2021/07/13 07:02:21;;;;;;;19.42;8.05;;;;;;;28.06;53.59;99603.59;5035006;28;20116;-81
2021/07/13 07:05:26;;;;;;;12.63;6.13;;;;;;;28.31;52.55;99602.91;5033298;28;20044;-80
2021/07/13 07:08:30;;;;;;;17.73;5.72;;;;;;;28.48;51.69;99608.22;5016451;28;20057;-80
2021/07/13 07:11:35;;;;;;;18.13;5.65;;;;;;;28.76;50.58;99607.81;5034648;28;20048;-81
2021/07/13 07:14:39;;;;;;;14.23;5.95;;;;;;;29.07;50.53;99603.19;5034425;28;20052;-80
2021/07/13 07:17:52;;;;;;;18.33;5.00;;;;;;;29.28;49.57;99605.75;5033643;28;20052;-81
2021/07/13 07:20:58;;;;;;;15.38;6.00;;;;;;;29.25;50.13;99617.38;5034628;28;20053;-80
2021/07/13 07:24:03;;;;;;;15.10;6.30;;;;;;;29.25;49.78;99613.78;5033850;28;20057;-81
2021/07/13 07:27:08;;;;;;;20.52;6.50;;;;;;;30.12;47.88;99619.84;5033872;28;20057;-79
2021/07/13 07:30:14;;;;;;;12.98;7.03;;;;;;;30.47;46.91;99626.47;5032729;28;20068;-80
2021/07/13 07:33:18;;;;;;;15.80;6.10;;;;;;;31.48;44.67;99619.28;5033306;28;20057;-81
2021/07/13 07:36:26;;;;;;;14.65;6.25;;;;;;;31.84;42.98;99608.72;5033683;28;20064;-80
2021/07/13 07:39:31;;;;;;;12.85;5.53;;;;;;;31.11;44.74;99596.75;5034025;28;20388;-81
2021/07/13 07:42:36;;;;;;;18.25;5.32;;;;;;;31.01;44.81;99602.38;5033432;28;20518;-80
2021/07/13 07:45:40;;;;;;;21.73;6.32;;;;;;;30.58;46.19;99598.44;5033707;28;20052;-80
2021/07/13 07:48:44;;;;;;;16.05;7.05;;;;;;;30.36;47.48;99580.50;5033140;28;20048;-81
2021/07/13 07:51:49;;;;;;;23.73;8.75;;;;;;;29.73;49.28;99580.03;5032408;28;20056;-80
2021/07/13 07:54:53;;;;;;;31.42;10.60;;;;;;;29.64;51.15;99570.63;5034093;28;20049;-81
2021/07/13 07:57:57;;;;;;;26.42;8.80;;;;;;;30.78;48.36;99567.00;5034134;28;20061;-81
2021/07/13 08:01:02;;;;;;;33.53;16.85;;;;;;;32.42;44.61;99558.69;5032874;28;20056;-80
2021/07/13 08:04:07;;;;;;;29.88;12.25;;;;;;;32.26;44.11;99551.66;5033040;28;20107;-80
2021/07/13 08:07:13;;;;;;;18.52;9.68;;;;;;;31.87;45.51;99551.78;5032765;28;20056;-80
2021/07/13 08:10:17;;;;;;;17.70;9.50;;;;;;;31.95;45.88;99554.72;5021301;28;20064;-80
2021/07/13 08:13:21;;;;;;;19.08;9.68;;;;;;;33.72;42.39;99561.53;5033729;28;20060;-80
2021/07/13 08:16:29;;;;;;;20.35;9.82;;;;;;;35.41;38.96;99539.81;5031030;28;20108;-80
2021/07/13 08:19:38;;;;;;;15.63;10.02;;;;;;;35.70;37.80;99539.38;5013576;28;20052;-80
2021/07/13 08:22:47;;;;;;;13.02;9.13;;;;;;;35.81;37.75;99546.34;5001337;28;20053;-81
2021/07/13 08:25:51;;;;;;;26.33;21.73;;;;;;;35.40;37.96;99540.97;5001073;28;20529;-81
2021/07/13 08:28:56;;;;;;;17.00;11.75;;;;;;;34.24;41.04;99539.94;5013537;28;20049;-80
2021/07/13 08:32:00;;;;;;;15.23;9.75;;;;;;;34.31;40.68;99538.41;5013716;28;20049;-80
2021/07/13 08:35:06;;;;;;;16.52;10.30;;;;;;;33.41;42.50;99532.50;5013677;28;20386;-78
2021/07/13 08:38:11;;;;;;;13.20;7.28;;;;;;;33.64;41.71;99537.16;5013603;28;20053;-79
2021/07/13 08:41:22;;;;;;;20.00;9.65;;;;;;;32.48;44.61;99519.41;5013524;28;20045;-79
2021/07/13 08:44:26;;;;;;;14.43;9.45;;;;;;;32.35;44.30;99522.91;5001480;28;20500;-79
2021/07/13 08:47:34;;;;;;;16.98;10.13;;;;;;;32.19;45.14;99529.78;5013807;28;20057;-80
2021/07/13 08:50:39;;;;;;;11.75;7.97;;;;;;;32.19;45.40;99538.13;5001085;28;20057;-80
2021/07/13 08:53:43;;;;;;;14.07;8.57;;;;;;;31.98;45.34;99531.97;5013807;28;20052;-80
2021/07/13 08:56:48;;;;;;;16.15;8.77;;;;;;;31.69;45.95;99516.44;5013122;28;20061;-80
2021/07/13 08:59:52;;;;;;;15.80;8.93;;;;;;;31.03;47.31;99521.69;5013576;28;20061;-79
2021/07/13 09:03:14;;;;;;;16.05;7.47;;;;;;;30.85;46.72;99529.56;5019777;28;20072;-80
2021/07/13 09:06:19;;;;;;;11.88;6.70;;;;;;;30.43;47.52;99534.78;5033396;28;20060;-80
2021/07/13 09:09:32;;;;;;;13.32;6.85;;;;;;;30.52;47.55;99529.44;5033061;28;20044;-80
2021/07/13 09:12:38;;;;;;;21.90;17.55;;;;;;;30.22;48.05;99517.38;5022864;28;20532;-80
2021/07/13 09:15:54;;;;;;;22.10;19.77;;;;;;;29.83;49.64;99504.50;5035233;28;20048;-80
2021/07/13 09:18:59;;;;;;;13.70;6.35;;;;;;;29.59;49.48;99498.72;5035627;28;20500;-80
2021/07/13 09:22:04;;;;;;;11.63;5.60;;;;;;;29.33;50.29;99478.56;5035508;28;20056;-79
2021/07/13 09:25:42;;;;;;;19.13;6.63;;;;;;;28.86;50.74;99462.22;5035254;28;20057;-80
2021/07/13 09:28:47;;;;;;;11.25;5.40;;;;;;;28.63;51.75;99443.44;5016158;28;20401;-79
2021/07/13 09:31:51;;;;;;;11.90;5.20;;;;;;;28.63;52.27;99479.34;5016527;28;20057;-79
2021/07/13 09:35:14;;;;;;;12.70;5.25;;;;;;;28.60;52.26;99485.41;5016171;28;20126;-78
2021/07/13 09:38:22;;;;;;;;;;;;;;;28.52;50.83;99483.13;5016577;28;20531;-78
2021/07/13 09:41:30;;;;;;;13.35;4.43;;;;;;;28.45;50.41;99493.59;5016471;28;19917;-79
2021/07/13 09:44:40;;;;;;;16.38;4.53;;;;;;;28.47;51.21;99499.69;5015595;28;20056;-80
2021/07/13 09:47:45;;;;;;;7.18;3.63;;;;;;;28.53;50.55;99508.81;5031788;28;20069;-81
2021/07/13 09:50:50;;;;;;;8.55;4.18;;;;;;;28.58;50.98;99520.72;5022944;28;20048;-80
2021/07/13 09:53:54;;;;;;;7.88;3.78;;;;;;;28.75;50.35;99531.56;5035697;28;20048;-81
2021/07/13 09:57:01;;;;;;;10.18;4.10;;;;;;;28.92;50.68;99512.78;5035562;28;20504;-80
2021/07/13 10:00:06;;;;;;;10.13;3.60;;;;;;;29.00;50.20;99521.38;5034151;28;20064;-80
2021/07/13 10:03:14;;;;;;;12.10;3.80;;;;;;;29.02;49.31;99507.28;5035448;28;20048;-79
2021/07/13 10:06:20;;;;;;;7.88;3.88;;;;;;;29.11;50.36;99527.72;5035350;28;20056;-80
2021/07/13 10:09:29;;;;;;;11.25;4.40;;;;;;;29.15;50.19;99544.59;5035108;28;20056;-80
2021/07/13 10:12:34;;;;;;;12.10;3.40;;;;;;;29.16;48.67;99551.81;5035203;28;20056;-80
2021/07/13 10:15:41;;;;;;;13.52;4.55;;;;;;;29.24;49.72;99546.56;5035459;28;20044;-81
2021/07/13 10:18:45;;;;;;;11.80;4.65;;;;;;;29.21;50.25;99535.25;5033618;28;20064;-79
2021/07/13 10:21:49;;;;;;;10.43;5.05;;;;;;;29.20;50.56;99526.13;5034943;28;20048;-78
2021/07/13 10:24:57;;;;;;;10.93;5.15;;;;;;;29.27;51.15;99523.91;5034983;28;20056;-80
2021/07/13 10:28:02;;;;;;;14.82;4.32;;;;;;;29.30;50.75;99520.59;5034248;28;20052;-81
2021/07/13 10:31:10;;;;;;;12.48;5.30;;;;;;;29.28;50.71;99520.03;5026384;28;20397;-80
2021/07/13 10:34:52;;;;;;;14.30;5.22;;;;;;;29.28;51.20;99513.69;5032954;28;20053;-80
2021/07/13 10:38:25;;;;;;;16.58;5.85;;;;;;;29.21;51.44;99496.56;5033549;28;20056;-80
2021/07/13 10:41:30;;;;;;;11.60;5.55;;;;;;;29.26;51.58;99478.00;5034664;28;20068;-79
2021/07/13 10:44:45;;;;;;;18.08;5.15;;;;;;;29.17;51.67;99485.19;5034537;28;20057;-79
2021/07/13 10:48:12;;;;;;;20.00;4.68;;;;;;;29.20;51.64;99492.13;5034556;28;20057;-80
2021/07/13 10:51:36;;;;;;;15.55;4.47;;;;;;;28.88;52.33;99471.09;5034202;28;20053;-81
2021/07/13 10:54:48;;;;;;;14.13;4.18;;;;;;;28.77;52.29;99479.63;5033493;28;20064;-80
2021/07/13 10:58:12;;;;;;;13.50;4.43;;;;;;;28.88;52.87;99486.84;5033705;28;20045;-79
2021/07/13 11:01:22;;;;;;;15.18;4.40;;;;;;;29.12;52.22;99498.16;5019286;28;20041;-80
2021/07/13 11:04:28;;;;;;;13.77;5.10;;;;;;;29.35;51.81;99506.78;5016221;28;20049;-81
2021/07/13 11:07:40;;;;;;;17.00;3.92;;;;;;;29.56;50.37;99510.34;5031046;28;20587;-79
2021/07/13 11:10:43;;;;;;;15.07;4.15;;;;;;;29.74;49.85;99520.81;5021894;28;20052;-81
2021/07/13 11:13:53;;;;;;;19.63;4.10;;;;;;;29.75;49.25;99508.63;5020651;28;20397;-80
2021/07/13 11:16:57;;;;;;;18.35;4.35;;;;;;;30.01;49.63;99513.03;5017256;28;20056;-80
2021/07/13 11:20:06;;;;;;;24.23;5.85;;;;;;;29.91;51.18;99490.09;5026371;28;20049;-80
2021/07/13 11:23:10;;;;;;;10.73;4.88;;;;;;;29.93;50.84;99485.94;5028616;28;20044;-80
2021/07/13 11:26:17;;;;;;;10.80;4.28;;;;;;;30.19;50.86;99501.34;5030085;28;20056;-80
2021/07/13 11:29:28;;;;;;;9.95;3.88;;;;;;;30.43;50.10;99515.38;5022167;28;20453;-80
2021/07/13 11:32:33;;;;;;;;;;;;;;;30.60;48.95;99499.22;5034232;28;20072;-80
2021/07/13 11:35:50;;;;;;;10.35;3.70;;;;;;;30.84;48.83;99496.56;5021791;28;19917;-79
2021/07/13 11:38:55;;;;;;;7.88;3.60;;;;;;;31.09;48.22;99485.31;5032229;28;20052;-80
2021/07/13 11:42:10;;;;;;;11.10;3.75;;;;;;;31.40;47.21;99480.34;5018996;28;20512;-81
2021/07/13 11:45:15;;;;;;;12.85;3.63;;;;;;;31.40;47.44;99497.81;5031966;28;20061;-80
2021/07/13 11:48:23;;;;;;;8.40;2.63;;;;;;;31.21;48.21;99496.84;5032689;28;20052;-80
2021/07/13 11:51:29;;;;;;;5.88;2.60;;;;;;;31.29;47.33;99509.28;5033335;28;20056;-79
2021/07/13 11:54:41;;;;;;;7.93;2.20;;;;;;;31.30;47.24;99517.31;5033390;28;20507;-80
2021/07/13 11:57:49;;;;;;;;;;;;;;;31.26;46.98;99527.31;5021923;28;20508;-81
2021/07/13 12:00:54;;;;;;;7.43;2.22;;;;;;;31.19;47.31;99528.78;5033783;28;19917;-80
2021/07/13 12:04:05;;;;;;;6.85;2.08;;;;;;;31.02;47.51;99528.34;5033331;28;20048;-80
2021/07/13 12:07:11;;;;;;;6.53;2.33;;;;;;;30.86;47.44;99524.84;5021317;28;20052;-79
2021/07/13 12:10:15;;;;;;;5.80;2.05;;;;;;;30.85;47.79;99506.53;5033336;28;20508;-79
2021/07/13 12:13:19;;;;;;;5.28;2.13;;;;;;;30.78;48.32;99503.28;5021118;28;20048;-81
2021/07/13 12:16:29;;;;;;;9.98;2.45;;;;;;;30.71;48.12;99508.31;5009743;28;20064;-80
2021/07/13 12:19:40;;;;;;;8.38;2.20;;;;;;;30.81;47.43;99499.94;5033344;28;20072;-80
2021/07/13 12:22:47;;;;;;;7.57;2.00;;;;;;;30.92;48.84;99489.59;4979341;28;20049;-80
2021/07/13 12:25:51;;;;;;;10.00;2.30;;;;;;;30.87;47.55;99482.13;4999850;28;20054;-79
2021/07/13 12:29:14;;;;;;;5.32;2.20;;;;;;;30.84;47.96;99461.38;5016379;28;20041;-80
2021/07/13 12:32:21;;;;;;;7.43;2.50;;;;;;;30.87;47.50;99476.59;5016888;28;20504;-79
2021/07/13 12:35:30;;;;;;;8.55;2.47;;;;;;;30.65;48.24;99479.78;5021257;28;20069;-78
2021/07/13 12:38:37;;;;;;;7.68;2.67;;;;;;;30.56;47.93;99475.97;5031289;28;20053;-79
2021/07/13 12:41:44;;;;;;;12.57;3.20;;;;;;;30.53;47.03;99481.25;5033080;28;20052;-79
2021/07/13 12:44:52;;;;;;;7.15;2.90;;;;;;;30.46;46.43;99484.34;5033493;28;20052;-80
2021/07/13 12:48:01;;;;;;;9.55;2.38;;;;;;;30.81;46.90;99486.88;5024935;28;20400;-79
2021/07/13 12:51:06;;;;;;;8.23;2.60;;;;;;;31.06;46.36;99480.34;5035919;28;20048;-80
2021/07/13 12:54:10;;;;;;;6.65;2.60;;;;;;;31.08;46.91;99472.59;5036366;28;20076;-78
2021/07/13 12:57:35;;;;;;;9.75;3.00;;;;;;;31.01;46.02;99480.38;5036793;28;20048;-79
2021/07/13 13:00:46;;;;;;;8.93;3.58;;;;;;;30.54;46.15;99472.66;5024387;28;20072;-80
2021/07/13 13:03:50;;;;;;;10.35;3.33;;;;;;;30.61;46.13;99484.25;5036756;28;20044;-80
2021/07/13 13:06:54;;;;;;;14.93;4.20;;;;;;;30.75;45.49;99487.22;5036627;28;20072;-80
2021/07/13 13:09:59;;;;;;;9.77;3.05;;;;;;;31.06;45.77;99487.88;5036317;28;20393;-79
2021/07/13 13:13:06;;;;;;;8.07;3.13;;;;;;;31.18;45.74;99486.38;5024412;28;20049;-79
2021/07/13 13:16:22;;;;;;;13.07;4.28;;;;;;;31.15;44.61;99483.34;5024108;28;20408;-80
2021/07/13 13:19:28;;;;;;;15.18;3.38;;;;;;;30.86;44.91;99480.50;5036566;28;20076;-80
2021/07/13 13:22:32;;;;;;;16.20;4.10;;;;;;;30.59;45.84;99477.34;5036576;28;20048;-79
2021/07/13 13:25:38;;;;;;;16.73;3.92;;;;;;;30.62;45.44;99483.13;5036359;28;20076;-79
2021/07/13 13:28:42;;;;;;;9.70;3.30;;;;;;;30.64;45.43;99488.41;5036105;28;20060;-80
2021/07/13 13:31:47;;;;;;;11.65;3.70;;;;;;;30.55;45.70;99479.84;5016346;28;20053;-79
2021/07/13 13:34:52;;;;;;;9.15;2.90;;;;;;;30.67;46.56;99479.50;4993089;28;20104;-79
2021/07/13 13:41:11;;;;;;;10.00;2.88;;;;;;;30.82;46.03;99474.69;5015992;28;20073;-80
2021/07/13 13:44:16;;;;;;;9.40;3.80;;;;;;;30.74;44.88;99464.19;5016099;28;20608;-79
2021/07/13 13:47:21;;;;;;;8.07;3.35;;;;;;;30.64;45.50;99452.38;5015984;28;20056;-79
2021/07/13 13:50:25;;;;;;;14.25;3.38;;;;;;;30.75;45.70;99465.03;5034105;28;20523;-82
2021/07/13 13:53:31;;;;;;;8.85;3.20;;;;;;;30.86;44.40;99456.34;5034684;28;20052;-76
2021/07/13 13:56:35;;;;;;;14.27;4.25;;;;;;;30.84;44.26;99460.53;5034362;28;20056;-80
2021/07/13 13:59:40;;;;;;;9.80;3.10;;;;;;;31.07;44.38;99459.00;5035785;28;20053;-79
2021/07/13 14:02:44;;;;;;;11.65;3.90;;;;;;;31.23;43.56;99453.00;5023063;28;20515;-79
2021/07/13 14:05:48;;;;;;;9.05;2.92;;;;;;;31.30;40.87;99442.44;5035440;28;20053;-79
2021/07/13 14:08:53;;;;;;;9.05;2.67;;;;;;;31.48;39.03;99443.66;5023294;28;20396;-79
2021/07/13 14:11:58;;;;;;;8.57;2.85;;;;;;;31.64;34.14;99433.22;5023141;28;20479;-80
2021/07/13 14:15:04;;;;;;;8.30;2.25;;;;;;;31.89;33.00;99444.88;5011909;28;20056;-78
2021/07/13 14:18:09;;;;;;;8.98;2.35;;;;;;;31.96;33.82;99433.41;5034336;28;20108;-80
2021/07/13 14:21:13;;;;;;;25.48;18.67;;;;;;;31.85;35.39;99434.66;5035141;28;20048;-80
2021/07/13 14:24:19;;;;;;;14.45;4.47;;;;;;;31.57;33.14;99424.44;5032515;28;20053;-80
2021/07/13 14:27:23;;;;;;;8.13;2.03;;;;;;;31.56;34.38;99442.19;5034737;28;20377;-80
2021/07/13 14:30:27;;;;;;;6.30;1.80;;;;;;;31.42;34.55;99437.31;5022633;28;20516;-79
2021/07/13 14:33:32;;;;;;;5.43;1.90;;;;;;;31.25;34.66;99434.16;5022889;28;20076;-80
2021/07/13 14:36:36;;;;;;;6.30;2.22;;;;;;;31.08;35.84;99436.53;5010874;28;20048;-80
2021/07/13 14:39:40;;;;;;;7.18;2.28;;;;;;;31.01;36.46;99430.47;5011271;28;20044;-80